sensor_id;sensor_type;location;lat;lon;timestamp;P1;durP1;ratioP1;P2;durP2;ratioP2
68608;SDS011;55581;46.718;7.690;2024-03-07T00:01:17;11.57;;;5.67;;
68608;SDS011;55581;46.718;7.690;2024-03-07T00:03:42;12.47;;;6.13;;
68608;SDS011;55581;46.718;7.690;2024-03-07T00:06:09;12.93;;;6.53;;
68608;SDS011;55581;46.718;7.690;2024-03-07T00:08:35;12.32;;;6.70;;
68608;SDS011;55581;46.718;7.690;2024-03-07T00:11:01;11.10;;;6.40;;
68608;SDS011;55581;46.718;7.690;2024-03-07T00:13:27;12.40;;;5.97;;
68608;SDS011;55581;46.718;7.690;2024-03-07T00:15:55;10.73;;;5.72;;
68608;SDS011;55581;46.718;7.690;2024-03-07T00:18:20;9.00;;;4.77;;
68608;SDS011;55581;46.718;7.690;2024-03-07T00:20:46;11.95;;;5.30;;
68608;SDS011;55581;46.718;7.690;2024-03-07T00:23:11;11.60;;;5.30;;
68608;SDS011;55581;46.718;7.690;2024-03-07T00:25:36;9.93;;;5.50;;
68608;SDS011;55581;46.718;7.690;2024-03-07T00:28:02;11.02;;;5.47;;
68608;SDS011;55581;46.718;7.690;2024-03-07T00:30:28;11.23;;;4.80;;
68608;SDS011;55581;46.718;7.690;2024-03-07T00:32:54;8.60;;;4.30;;
68608;SDS011;55581;46.718;7.690;2024-03-07T00:35:21;9.40;;;4.47;;
68608;SDS011;55581;46.718;7.690;2024-03-07T00:37:47;8.65;;;4.53;;
68608;SDS011;55581;46.718;7.690;2024-03-07T00:40:12;10.17;;;5.10;;
68608;SDS011;55581;46.718;7.690;2024-03-07T00:42:38;12.97;;;5.37;;
68608;SDS011;55581;46.718;7.690;2024-03-07T00:45:04;9.07;;;4.47;;
68608;SDS011;55581;46.718;7.690;2024-03-07T00:47:32;9.05;;;4.25;;
68608;SDS011;55581;46.718;7.690;2024-03-07T00:49:57;10.70;;;4.67;;
68608;SDS011;55581;46.718;7.690;2024-03-07T00:52:22;9.37;;;4.83;;
68608;SDS011;55581;46.718;7.690;2024-03-07T00:54:51;11.20;;;4.50;;
68608;SDS011;55581;46.718;7.690;2024-03-07T00:57:16;11.80;;;5.20;;
68608;SDS011;55581;46.718;7.690;2024-03-07T00:59:42;11.27;;;4.90;;
68608;SDS011;55581;46.718;7.690;2024-03-07T01:02:07;9.80;;;4.70;;
68608;SDS011;55581;46.718;7.690;2024-03-07T01:04:32;14.40;;;6.47;;
68608;SDS011;55581;46.718;7.690;2024-03-07T01:06:58;11.57;;;5.35;;
68608;SDS011;55581;46.718;7.690;2024-03-07T01:09:27;9.73;;;4.97;;
68608;SDS011;55581;46.718;7.690;2024-03-07T01:11:53;9.50;;;4.50;;
68608;SDS011;55581;46.718;7.690;2024-03-07T01:14:20;9.80;;;4.60;;
68608;SDS011;55581;46.718;7.690;2024-03-07T01:16:48;9.35;;;3.88;;
68608;SDS011;55581;46.718;7.690;2024-03-07T01:19:13;8.70;;;4.10;;
68608;SDS011;55581;46.718;7.690;2024-03-07T01:21:39;9.80;;;4.45;;
68608;SDS011;55581;46.718;7.690;2024-03-07T01:24:05;8.48;;;4.30;;
68608;SDS011;55581;46.718;7.690;2024-03-07T01:26:31;9.80;;;3.93;;
68608;SDS011;55581;46.718;7.690;2024-03-07T01:28:58;8.23;;;3.85;;
68608;SDS011;55581;46.718;7.690;2024-03-07T01:31:24;8.17;;;3.80;;
68608;SDS011;55581;46.718;7.690;2024-03-07T01:33:50;7.90;;;3.13;;
68608;SDS011;55581;46.718;7.690;2024-03-07T01:36:18;7.47;;;2.65;;
68608;SDS011;55581;46.718;7.690;2024-03-07T01:38:44;7.40;;;3.20;;
68608;SDS011;55581;46.718;7.690;2024-03-07T01:41:09;8.80;;;3.10;;
68608;SDS011;55581;46.718;7.690;2024-03-07T01:43:35;7.77;;;3.00;;
68608;SDS011;55581;46.718;7.690;2024-03-07T01:46:00;7.70;;;3.10;;
68608;SDS011;55581;46.718;7.690;2024-03-07T01:48:26;7.47;;;3.73;;
68608;SDS011;55581;46.718;7.690;2024-03-07T01:50:57;8.30;;;3.40;;
68608;SDS011;55581;46.718;7.690;2024-03-07T01:53:24;7.30;;;3.25;;
68608;SDS011;55581;46.718;7.690;2024-03-07T01:55:52;7.90;;;3.58;;
68608;SDS011;55581;46.718;7.690;2024-03-07T01:58:20;6.55;;;3.22;;
68608;SDS011;55581;46.718;7.690;2024-03-07T02:00:46;7.40;;;3.23;;
68608;SDS011;55581;46.718;7.690;2024-03-07T02:03:14;7.75;;;3.17;;
68608;SDS011;55581;46.718;7.690;2024-03-07T02:05:43;7.47;;;3.10;;
68608;SDS011;55581;46.718;7.690;2024-03-07T02:08:09;8.13;;;3.03;;
68608;SDS011;55581;46.718;7.690;2024-03-07T02:10:34;7.17;;;3.50;;
68608;SDS011;55581;46.718;7.690;2024-03-07T02:13:03;12.10;;;4.00;;
68608;SDS011;55581;46.718;7.690;2024-03-07T02:15:28;10.15;;;4.65;;
68608;SDS011;55581;46.718;7.690;2024-03-07T02:17:54;12.63;;;6.13;;
68608;SDS011;55581;46.718;7.690;2024-03-07T02:20:19;10.80;;;4.90;;
68608;SDS011;55581;46.718;7.690;2024-03-07T02:22:45;8.93;;;4.70;;
68608;SDS011;55581;46.718;7.690;2024-03-07T02:25:12;12.93;;;5.53;;
68608;SDS011;55581;46.718;7.690;2024-03-07T02:27:38;11.48;;;5.40;;
68608;SDS011;55581;46.718;7.690;2024-03-07T02:30:04;10.63;;;5.20;;
68608;SDS011;55581;46.718;7.690;2024-03-07T02:32:36;9.05;;;4.68;;
68608;SDS011;55581;46.718;7.690;2024-03-07T02:35:02;8.32;;;3.95;;
68608;SDS011;55581;46.718;7.690;2024-03-07T02:37:28;7.00;;;2.67;;
68608;SDS011;55581;46.718;7.690;2024-03-07T02:39:54;7.72;;;3.13;;
68608;SDS011;55581;46.718;7.690;2024-03-07T02:42:21;7.60;;;3.07;;
68608;SDS011;55581;46.718;7.690;2024-03-07T02:44:47;5.97;;;2.42;;
68608;SDS011;55581;46.718;7.690;2024-03-07T02:47:12;6.83;;;2.57;;
68608;SDS011;55581;46.718;7.690;2024-03-07T02:49:40;6.93;;;3.10;;
68608;SDS011;55581;46.718;7.690;2024-03-07T02:52:05;6.70;;;3.20;;
68608;SDS011;55581;46.718;7.690;2024-03-07T02:54:32;6.75;;;3.08;;
68608;SDS011;55581;46.718;7.690;2024-03-07T02:57:01;6.37;;;3.10;;
68608;SDS011;55581;46.718;7.690;2024-03-07T02:59:26;8.40;;;2.97;;
68608;SDS011;55581;46.718;7.690;2024-03-07T03:01:51;7.50;;;3.13;;
68608;SDS011;55581;46.718;7.690;2024-03-07T03:04:17;7.97;;;3.73;;
68608;SDS011;55581;46.718;7.690;2024-03-07T03:06:43;9.07;;;4.30;;
68608;SDS011;55581;46.718;7.690;2024-03-07T03:09:11;8.63;;;3.83;;
68608;SDS011;55581;46.718;7.690;2024-03-07T03:11:42;10.00;;;4.10;;
68608;SDS011;55581;46.718;7.690;2024-03-07T03:14:08;9.07;;;4.22;;
68608;SDS011;55581;46.718;7.690;2024-03-07T03:16:35;9.02;;;4.35;;
68608;SDS011;55581;46.718;7.690;2024-03-07T03:19:01;10.23;;;4.53;;
68608;SDS011;55581;46.718;7.690;2024-03-07T03:21:26;9.07;;;4.53;;
68608;SDS011;55581;46.718;7.690;2024-03-07T03:23:52;11.52;;;5.50;;
68608;SDS011;55581;46.718;7.690;2024-03-07T03:26:19;10.20;;;4.80;;
68608;SDS011;55581;46.718;7.690;2024-03-07T03:28:46;11.20;;;5.75;;
68608;SDS011;55581;46.718;7.690;2024-03-07T03:31:12;12.82;;;5.15;;
68608;SDS011;55581;46.718;7.690;2024-03-07T03:33:39;11.23;;;5.40;;
68608;SDS011;55581;46.718;7.690;2024-03-07T03:36:05;10.70;;;4.78;;
68608;SDS011;55581;46.718;7.690;2024-03-07T03:38:32;9.63;;;4.13;;
68608;SDS011;55581;46.718;7.690;2024-03-07T03:40:57;8.47;;;3.67;;
68608;SDS011;55581;46.718;7.690;2024-03-07T03:43:23;6.70;;;2.93;;
68608;SDS011;55581;46.718;7.690;2024-03-07T03:45:48;6.68;;;2.80;;
68608;SDS011;55581;46.718;7.690;2024-03-07T03:48:14;7.43;;;2.73;;
68608;SDS011;55581;46.718;7.690;2024-03-07T03:50:39;6.13;;;2.50;;
68608;SDS011;55581;46.718;7.690;2024-03-07T03:53:05;8.10;;;3.00;;
68608;SDS011;55581;46.718;7.690;2024-03-07T03:55:30;6.72;;;2.80;;
68608;SDS011;55581;46.718;7.690;2024-03-07T03:57:57;6.97;;;2.60;;
68608;SDS011;55581;46.718;7.690;2024-03-07T04:00:25;8.23;;;3.50;;
68608;SDS011;55581;46.718;7.690;2024-03-07T04:02:50;7.90;;;3.33;;
68608;SDS011;55581;46.718;7.690;2024-03-07T04:05:17;6.83;;;2.67;;
68608;SDS011;55581;46.718;7.690;2024-03-07T04:07:44;8.68;;;3.67;;
68608;SDS011;55581;46.718;7.690;2024-03-07T04:10:10;7.53;;;3.60;;
68608;SDS011;55581;46.718;7.690;2024-03-07T04:12:39;7.28;;;3.50;;
68608;SDS011;55581;46.718;7.690;2024-03-07T04:15:09;8.00;;;4.18;;
68608;SDS011;55581;46.718;7.690;2024-03-07T04:17:36;8.25;;;3.63;;
68608;SDS011;55581;46.718;7.690;2024-03-07T04:20:03;7.72;;;3.60;;
68608;SDS011;55581;46.718;7.690;2024-03-07T04:22:32;9.23;;;3.43;;
68608;SDS011;55581;46.718;7.690;2024-03-07T04:24:58;9.35;;;3.90;;
68608;SDS011;55581;46.718;7.690;2024-03-07T04:27:24;8.68;;;4.20;;
68608;SDS011;55581;46.718;7.690;2024-03-07T04:29:52;9.02;;;4.45;;
68608;SDS011;55581;46.718;7.690;2024-03-07T04:32:18;9.48;;;4.00;;
68608;SDS011;55581;46.718;7.690;2024-03-07T04:34:44;9.43;;;4.10;;
68608;SDS011;55581;46.718;7.690;2024-03-07T04:37:10;10.80;;;4.88;;
68608;SDS011;55581;46.718;7.690;2024-03-07T04:39:35;9.83;;;3.87;;
68608;SDS011;55581;46.718;7.690;2024-03-07T04:42:01;10.60;;;4.63;;
68608;SDS011;55581;46.718;7.690;2024-03-07T04:44:28;7.53;;;2.87;;
68608;SDS011;55581;46.718;7.690;2024-03-07T04:46:55;7.15;;;2.72;;
68608;SDS011;55581;46.718;7.690;2024-03-07T04:49:24;5.32;;;1.95;;
68608;SDS011;55581;46.718;7.690;2024-03-07T04:51:50;6.75;;;2.53;;
68608;SDS011;55581;46.718;7.690;2024-03-07T04:54:17;5.68;;;2.10;;
68608;SDS011;55581;46.718;7.690;2024-03-07T04:56:43;5.93;;;2.30;;
68608;SDS011;55581;46.718;7.690;2024-03-07T04:59:12;7.25;;;3.08;;
68608;SDS011;55581;46.718;7.690;2024-03-07T05:01:38;5.38;;;2.25;;
68608;SDS011;55581;46.718;7.690;2024-03-07T05:04:06;6.22;;;2.03;;
68608;SDS011;55581;46.718;7.690;2024-03-07T05:06:32;6.63;;;2.13;;
68608;SDS011;55581;46.718;7.690;2024-03-07T05:09:02;5.38;;;2.00;;
68608;SDS011;55581;46.718;7.690;2024-03-07T05:11:33;5.32;;;1.85;;
68608;SDS011;55581;46.718;7.690;2024-03-07T05:14:00;4.47;;;1.58;;
68608;SDS011;55581;46.718;7.690;2024-03-07T05:16:30;5.97;;;1.40;;
68608;SDS011;55581;46.718;7.690;2024-03-07T05:18:59;5.17;;;1.77;;
68608;SDS011;55581;46.718;7.690;2024-03-07T05:21:25;6.03;;;2.00;;
68608;SDS011;55581;46.718;7.690;2024-03-07T05:23:59;6.65;;;1.73;;
68608;SDS011;55581;46.718;7.690;2024-03-07T05:26:26;5.82;;;1.77;;
68608;SDS011;55581;46.718;7.690;2024-03-07T05:28:52;6.17;;;1.70;;
68608;SDS011;55581;46.718;7.690;2024-03-07T05:31:21;5.40;;;1.60;;
68608;SDS011;55581;46.718;7.690;2024-03-07T05:33:49;5.03;;;1.77;;
68608;SDS011;55581;46.718;7.690;2024-03-07T05:36:15;5.68;;;1.73;;
68608;SDS011;55581;46.718;7.690;2024-03-07T05:38:41;5.00;;;1.50;;
68608;SDS011;55581;46.718;7.690;2024-03-07T05:41:12;4.72;;;1.30;;
68608;SDS011;55581;46.718;7.690;2024-03-07T05:43:38;5.53;;;1.60;;
68608;SDS011;55581;46.718;7.690;2024-03-07T05:46:03;4.93;;;1.55;;
68608;SDS011;55581;46.718;7.690;2024-03-07T05:48:31;4.47;;;1.38;;
68608;SDS011;55581;46.718;7.690;2024-03-07T05:50:57;5.23;;;1.30;;
68608;SDS011;55581;46.718;7.690;2024-03-07T05:53:25;4.78;;;1.55;;
68608;SDS011;55581;46.718;7.690;2024-03-07T05:55:50;3.83;;;1.33;;
68608;SDS011;55581;46.718;7.690;2024-03-07T05:58:15;7.70;;;1.80;;
68608;SDS011;55581;46.718;7.690;2024-03-07T06:00:45;4.53;;;1.58;;
68608;SDS011;55581;46.718;7.690;2024-03-07T06:03:15;4.20;;;1.00;;
68608;SDS011;55581;46.718;7.690;2024-03-07T06:05:50;4.10;;;1.20;;
68608;SDS011;55581;46.718;7.690;2024-03-07T06:08:19;5.35;;;1.60;;
68608;SDS011;55581;46.718;7.690;2024-03-07T06:10:46;4.38;;;0.98;;
68608;SDS011;55581;46.718;7.690;2024-03-07T06:13:15;3.92;;;1.40;;
68608;SDS011;55581;46.718;7.690;2024-03-07T06:15:44;4.33;;;1.50;;
68608;SDS011;55581;46.718;7.690;2024-03-07T06:18:11;3.88;;;1.20;;
68608;SDS011;55581;46.718;7.690;2024-03-07T06:20:38;5.55;;;1.63;;
68608;SDS011;55581;46.718;7.690;2024-03-07T06:23:06;5.50;;;1.25;;
68608;SDS011;55581;46.718;7.690;2024-03-07T06:25:31;4.00;;;1.10;;
68608;SDS011;55581;46.718;7.690;2024-03-07T06:28:12;4.03;;;1.30;;
68608;SDS011;55581;46.718;7.690;2024-03-07T06:30:38;5.53;;;1.10;;
68608;SDS011;55581;46.718;7.690;2024-03-07T06:33:08;3.83;;;1.13;;
68608;SDS011;55581;46.718;7.690;2024-03-07T06:35:33;5.47;;;1.33;;
68608;SDS011;55581;46.718;7.690;2024-03-07T06:38:05;4.57;;;1.48;;
68608;SDS011;55581;46.718;7.690;2024-03-07T06:40:34;4.85;;;1.25;;
68608;SDS011;55581;46.718;7.690;2024-03-07T06:43:03;3.97;;;1.30;;
68608;SDS011;55581;46.718;7.690;2024-03-07T06:45:29;4.82;;;1.20;;
68608;SDS011;55581;46.718;7.690;2024-03-07T06:47:57;5.13;;;1.40;;
68608;SDS011;55581;46.718;7.690;2024-03-07T06:50:22;5.68;;;1.23;;
68608;SDS011;55581;46.718;7.690;2024-03-07T06:52:50;6.13;;;1.63;;
68608;SDS011;55581;46.718;7.690;2024-03-07T06:55:16;4.90;;;1.50;;
68608;SDS011;55581;46.718;7.690;2024-03-07T06:57:42;5.30;;;1.77;;
68608;SDS011;55581;46.718;7.690;2024-03-07T07:00:09;4.35;;;1.60;;
68608;SDS011;55581;46.718;7.690;2024-03-07T07:02:39;4.33;;;1.27;;
68608;SDS011;55581;46.718;7.690;2024-03-07T07:05:06;4.45;;;1.40;;
68608;SDS011;55581;46.718;7.690;2024-03-07T07:07:38;4.25;;;1.23;;
68608;SDS011;55581;46.718;7.690;2024-03-07T07:10:04;4.35;;;1.27;;
68608;SDS011;55581;46.718;7.690;2024-03-07T07:12:34;5.35;;;1.98;;
68608;SDS011;55581;46.718;7.690;2024-03-07T07:15:00;4.37;;;1.30;;
68608;SDS011;55581;46.718;7.690;2024-03-07T07:17:26;4.68;;;1.10;;
68608;SDS011;55581;46.718;7.690;2024-03-07T07:19:53;5.22;;;1.45;;
68608;SDS011;55581;46.718;7.690;2024-03-07T07:22:22;3.90;;;1.02;;
68608;SDS011;55581;46.718;7.690;2024-03-07T07:24:47;4.07;;;1.17;;
68608;SDS011;55581;46.718;7.690;2024-03-07T07:27:12;3.90;;;0.90;;
68608;SDS011;55581;46.718;7.690;2024-03-07T07:29:38;4.30;;;1.20;;
68608;SDS011;55581;46.718;7.690;2024-03-07T07:32:06;3.65;;;1.10;;
68608;SDS011;55581;46.718;7.690;2024-03-07T07:34:32;3.53;;;0.90;;
68608;SDS011;55581;46.718;7.690;2024-03-07T07:37:00;3.53;;;0.90;;
68608;SDS011;55581;46.718;7.690;2024-03-07T07:39:25;3.53;;;0.90;;
68608;SDS011;55581;46.718;7.690;2024-03-07T07:41:51;2.93;;;0.60;;
68608;SDS011;55581;46.718;7.690;2024-03-07T07:44:16;4.33;;;1.20;;
68608;SDS011;55581;46.718;7.690;2024-03-07T07:46:42;3.45;;;1.00;;
68608;SDS011;55581;46.718;7.690;2024-03-07T07:49:08;3.67;;;0.80;;
68608;SDS011;55581;46.718;7.690;2024-03-07T07:51:34;4.03;;;0.80;;
68608;SDS011;55581;46.718;7.690;2024-03-07T07:53:59;3.50;;;1.00;;
68608;SDS011;55581;46.718;7.690;2024-03-07T07:56:25;2.75;;;0.80;;
68608;SDS011;55581;46.718;7.690;2024-03-07T07:58:53;2.53;;;0.70;;
68608;SDS011;55581;46.718;7.690;2024-03-07T08:01:19;3.58;;;0.88;;
68608;SDS011;55581;46.718;7.690;2024-03-07T08:03:44;3.13;;;0.83;;
68608;SDS011;55581;46.718;7.690;2024-03-07T08:06:10;3.03;;;0.63;;
68608;SDS011;55581;46.718;7.690;2024-03-07T08:08:35;3.80;;;0.90;;
68608;SDS011;55581;46.718;7.690;2024-03-07T08:11:04;3.15;;;0.80;;
68608;SDS011;55581;46.718;7.690;2024-03-07T08:13:29;3.83;;;1.10;;
68608;SDS011;55581;46.718;7.690;2024-03-07T08:15:55;3.57;;;0.70;;
68608;SDS011;55581;46.718;7.690;2024-03-07T08:18:22;2.92;;;0.68;;
68608;SDS011;55581;46.718;7.690;2024-03-07T08:20:48;3.03;;;0.80;;
68608;SDS011;55581;46.718;7.690;2024-03-07T08:23:14;2.63;;;0.50;;
68608;SDS011;55581;46.718;7.690;2024-03-07T08:25:42;2.30;;;0.55;;
68608;SDS011;55581;46.718;7.690;2024-03-07T08:28:08;2.73;;;0.70;;
68608;SDS011;55581;46.718;7.690;2024-03-07T08:30:33;3.40;;;0.70;;
68608;SDS011;55581;46.718;7.690;2024-03-07T08:33:00;3.13;;;0.63;;
68608;SDS011;55581;46.718;7.690;2024-03-07T08:35:27;2.30;;;0.55;;
68608;SDS011;55581;46.718;7.690;2024-03-07T08:37:56;3.75;;;0.80;;
68608;SDS011;55581;46.718;7.690;2024-03-07T08:40:26;3.03;;;0.70;;
68608;SDS011;55581;46.718;7.690;2024-03-07T08:42:56;2.50;;;0.70;;
68608;SDS011;55581;46.718;7.690;2024-03-07T08:45:22;2.35;;;0.60;;
68608;SDS011;55581;46.718;7.690;2024-03-07T08:47:51;3.17;;;0.73;;
68608;SDS011;55581;46.718;7.690;2024-03-07T08:50:21;3.35;;;0.93;;
68608;SDS011;55581;46.718;7.690;2024-03-07T08:52:47;2.33;;;0.63;;
68608;SDS011;55581;46.718;7.690;2024-03-07T08:55:14;2.20;;;0.50;;
68608;SDS011;55581;46.718;7.690;2024-03-07T08:57:41;2.20;;;0.40;;
68608;SDS011;55581;46.718;7.690;2024-03-07T09:00:09;2.40;;;0.40;;
68608;SDS011;55581;46.718;7.690;2024-03-07T09:02:39;2.35;;;0.38;;
68608;SDS011;55581;46.718;7.690;2024-03-07T09:05:05;1.70;;;0.40;;
68608;SDS011;55581;46.718;7.690;2024-03-07T09:07:31;1.58;;;0.20;;
68608;SDS011;55581;46.718;7.690;2024-03-07T09:10:00;2.10;;;0.40;;
68608;SDS011;55581;46.718;7.690;2024-03-07T09:12:28;1.83;;;0.40;;
68608;SDS011;55581;46.718;7.690;2024-03-07T09:14:53;1.80;;;0.35;;
68608;SDS011;55581;46.718;7.690;2024-03-07T09:17:21;2.33;;;0.50;;
68608;SDS011;55581;46.718;7.690;2024-03-07T09:19:47;2.43;;;0.53;;
68608;SDS011;55581;46.718;7.690;2024-03-07T09:22:15;3.60;;;0.60;;
68608;SDS011;55581;46.718;7.690;2024-03-07T09:24:40;2.28;;;0.38;;
68608;SDS011;55581;46.718;7.690;2024-03-07T09:27:08;2.15;;;0.40;;
68608;SDS011;55581;46.718;7.690;2024-03-07T09:29:38;1.65;;;0.40;;
68608;SDS011;55581;46.718;7.690;2024-03-07T09:32:04;3.23;;;0.43;;
68608;SDS011;55581;46.718;7.690;2024-03-07T09:34:32;2.57;;;0.30;;
68608;SDS011;55581;46.718;7.690;2024-03-07T09:36:57;1.80;;;0.28;;
68608;SDS011;55581;46.718;7.690;2024-03-07T09:39:24;2.63;;;0.47;;
68608;SDS011;55581;46.718;7.690;2024-03-07T09:41:49;1.80;;;0.37;;
68608;SDS011;55581;46.718;7.690;2024-03-07T09:44:16;2.25;;;0.40;;
68608;SDS011;55581;46.718;7.690;2024-03-07T09:46:50;2.20;;;0.50;;
68608;SDS011;55581;46.718;7.690;2024-03-07T09:49:26;3.65;;;0.60;;
68608;SDS011;55581;46.718;7.690;2024-03-07T09:51:53;1.77;;;0.30;;
68608;SDS011;55581;46.718;7.690;2024-03-07T09:54:22;2.30;;;0.50;;
68608;SDS011;55581;46.718;7.690;2024-03-07T09:56:56;1.80;;;0.20;;
68608;SDS011;55581;46.718;7.690;2024-03-07T09:59:26;2.70;;;0.30;;
68608;SDS011;55581;46.718;7.690;2024-03-07T10:01:56;1.20;;;0.20;;
68608;SDS011;55581;46.718;7.690;2024-03-07T10:04:48;1.63;;;0.30;;
68608;SDS011;55581;46.718;7.690;2024-03-07T10:07:16;1.73;;;0.30;;
68608;SDS011;55581;46.718;7.690;2024-03-07T10:09:45;2.60;;;0.30;;
68608;SDS011;55581;46.718;7.690;2024-03-07T10:12:12;1.92;;;0.40;;
68608;SDS011;55581;46.718;7.690;2024-03-07T10:14:38;1.30;;;0.20;;
68608;SDS011;55581;46.718;7.690;2024-03-07T10:17:04;1.77;;;0.20;;
68608;SDS011;55581;46.718;7.690;2024-03-07T10:19:30;2.00;;;0.20;;
68608;SDS011;55581;46.718;7.690;2024-03-07T10:21:56;2.10;;;0.30;;
68608;SDS011;55581;46.718;7.690;2024-03-07T10:24:26;3.20;;;0.30;;
68608;SDS011;55581;46.718;7.690;2024-03-07T10:26:53;2.27;;;0.30;;
68608;SDS011;55581;46.718;7.690;2024-03-07T10:29:21;3.53;;;0.20;;
68608;SDS011;55581;46.718;7.690;2024-03-07T10:31:50;1.58;;;0.20;;
68608;SDS011;55581;46.718;7.690;2024-03-07T10:34:15;1.80;;;0.20;;
68608;SDS011;55581;46.718;7.690;2024-03-07T10:36:42;4.30;;;0.30;;
68608;SDS011;55581;46.718;7.690;2024-03-07T10:39:08;2.20;;;0.30;;
68608;SDS011;55581;46.718;7.690;2024-03-07T10:41:46;1.38;;;0.40;;
68608;SDS011;55581;46.718;7.690;2024-03-07T10:44:18;3.00;;;0.50;;
68608;SDS011;55581;46.718;7.690;2024-03-07T10:46:51;2.65;;;0.40;;
68608;SDS011;55581;46.718;7.690;2024-03-07T10:49:18;2.75;;;0.75;;
68608;SDS011;55581;46.718;7.690;2024-03-07T10:51:48;2.65;;;0.77;;
68608;SDS011;55581;46.718;7.690;2024-03-07T10:57:51;3.93;;;0.97;;
68608;SDS011;55581;46.718;7.690;2024-03-07T11:00:19;2.42;;;0.50;;
68608;SDS011;55581;46.718;7.690;2024-03-07T11:03:00;2.78;;;0.70;;
68608;SDS011;55581;46.718;7.690;2024-03-07T11:05:32;3.58;;;0.98;;
68608;SDS011;55581;46.718;7.690;2024-03-07T11:08:01;3.08;;;0.80;;
68608;SDS011;55581;46.718;7.690;2024-03-07T11:10:36;2.93;;;0.80;;
68608;SDS011;55581;46.718;7.690;2024-03-07T11:13:03;2.50;;;0.50;;
68608;SDS011;55581;46.718;7.690;2024-03-07T11:15:29;3.20;;;0.70;;
68608;SDS011;55581;46.718;7.690;2024-03-07T11:17:59;3.38;;;1.00;;
68608;SDS011;55581;46.718;7.690;2024-03-07T11:20:34;3.10;;;0.90;;
68608;SDS011;55581;46.718;7.690;2024-03-07T11:23:01;2.60;;;0.65;;
68608;SDS011;55581;46.718;7.690;2024-03-07T11:25:53;5.40;;;0.90;;
68608;SDS011;55581;46.718;7.690;2024-03-07T11:28:30;3.15;;;0.80;;
68608;SDS011;55581;46.718;7.690;2024-03-07T11:31:15;2.50;;;0.60;;
68608;SDS011;55581;46.718;7.690;2024-03-07T11:33:40;3.65;;;1.00;;
68608;SDS011;55581;46.718;7.690;2024-03-07T11:36:08;3.22;;;0.90;;
68608;SDS011;55581;46.718;7.690;2024-03-07T11:38:36;3.63;;;0.75;;
68608;SDS011;55581;46.718;7.690;2024-03-07T11:41:24;2.67;;;0.82;;
68608;SDS011;55581;46.718;7.690;2024-03-07T11:43:54;3.83;;;0.83;;
68608;SDS011;55581;46.718;7.690;2024-03-07T11:46:21;3.10;;;1.00;;
68608;SDS011;55581;46.718;7.690;2024-03-07T11:48:50;3.08;;;1.10;;
68608;SDS011;55581;46.718;7.690;2024-03-07T11:51:19;2.85;;;0.80;;
68608;SDS011;55581;46.718;7.690;2024-03-07T11:53:52;3.63;;;1.15;;
68608;SDS011;55581;46.718;7.690;2024-03-07T11:56:21;2.60;;;0.70;;
68608;SDS011;55581;46.718;7.690;2024-03-07T11:58:47;3.03;;;0.70;;
68608;SDS011;55581;46.718;7.690;2024-03-07T12:01:22;2.70;;;0.80;;
68608;SDS011;55581;46.718;7.690;2024-03-07T12:03:50;3.38;;;1.10;;
68608;SDS011;55581;46.718;7.690;2024-03-07T12:06:17;2.42;;;0.63;;
68608;SDS011;55581;46.718;7.690;2024-03-07T12:08:44;3.47;;;0.80;;
68608;SDS011;55581;46.718;7.690;2024-03-07T12:11:14;3.20;;;1.13;;
68608;SDS011;55581;46.718;7.690;2024-03-07T12:13:41;2.80;;;0.80;;
68608;SDS011;55581;46.718;7.690;2024-03-07T12:16:07;2.80;;;0.70;;
68608;SDS011;55581;46.718;7.690;2024-03-07T12:18:33;3.75;;;0.85;;
68608;SDS011;55581;46.718;7.690;2024-03-07T12:21:00;3.15;;;0.90;;
68608;SDS011;55581;46.718;7.690;2024-03-07T12:23:31;3.17;;;0.90;;
68608;SDS011;55581;46.718;7.690;2024-03-07T12:26:00;3.85;;;1.00;;
68608;SDS011;55581;46.718;7.690;2024-03-07T12:28:27;3.75;;;1.00;;
68608;SDS011;55581;46.718;7.690;2024-03-07T12:30:53;3.07;;;0.97;;
68608;SDS011;55581;46.718;7.690;2024-03-07T12:33:23;2.72;;;1.00;;
68608;SDS011;55581;46.718;7.690;2024-03-07T12:35:52;3.88;;;1.20;;
68608;SDS011;55581;46.718;7.690;2024-03-07T12:38:25;2.58;;;0.77;;
68608;SDS011;55581;46.718;7.690;2024-03-07T12:43:32;3.92;;;0.88;;
68608;SDS011;55581;46.718;7.690;2024-03-07T12:45:58;3.30;;;0.90;;
68608;SDS011;55581;46.718;7.690;2024-03-07T12:48:24;2.88;;;0.77;;
68608;SDS011;55581;46.718;7.690;2024-03-07T12:50:50;2.70;;;0.83;;
68608;SDS011;55581;46.718;7.690;2024-03-07T12:53:22;2.92;;;0.80;;
68608;SDS011;55581;46.718;7.690;2024-03-07T12:55:50;2.60;;;0.80;;
68608;SDS011;55581;46.718;7.690;2024-03-07T12:58:17;2.42;;;0.80;;
68608;SDS011;55581;46.718;7.690;2024-03-07T13:00:47;2.78;;;0.85;;
68608;SDS011;55581;46.718;7.690;2024-03-07T13:03:12;3.27;;;0.80;;
68608;SDS011;55581;46.718;7.690;2024-03-07T13:05:40;2.83;;;0.80;;
68608;SDS011;55581;46.718;7.690;2024-03-07T13:08:08;3.23;;;0.90;;
68608;SDS011;55581;46.718;7.690;2024-03-07T13:10:43;3.35;;;0.80;;
68608;SDS011;55581;46.718;7.690;2024-03-07T13:13:10;3.03;;;1.08;;
68608;SDS011;55581;46.718;7.690;2024-03-07T13:15:39;4.00;;;0.95;;
68608;SDS011;55581;46.718;7.690;2024-03-07T13:18:07;2.58;;;0.70;;
68608;SDS011;55581;46.718;7.690;2024-03-07T13:20:34;2.73;;;0.83;;
68608;SDS011;55581;46.718;7.690;2024-03-07T13:23:01;2.60;;;0.70;;
68608;SDS011;55581;46.718;7.690;2024-03-07T13:25:27;3.22;;;1.00;;
68608;SDS011;55581;46.718;7.690;2024-03-07T13:30:26;4.03;;;1.05;;
68608;SDS011;55581;46.718;7.690;2024-03-07T13:32:56;3.23;;;0.90;;
68608;SDS011;55581;46.718;7.690;2024-03-07T13:35:22;3.10;;;0.80;;
68608;SDS011;55581;46.718;7.690;2024-03-07T13:37:49;3.40;;;0.80;;
68608;SDS011;55581;46.718;7.690;2024-03-07T13:40:15;3.30;;;0.90;;
68608;SDS011;55581;46.718;7.690;2024-03-07T13:45:18;4.35;;;1.20;;
68608;SDS011;55581;46.718;7.690;2024-03-07T13:47:45;2.40;;;0.80;;
68608;SDS011;55581;46.718;7.690;2024-03-07T13:50:13;3.30;;;1.10;;
68608;SDS011;55581;46.718;7.690;2024-03-07T13:52:40;2.88;;;0.77;;
68608;SDS011;55581;46.718;7.690;2024-03-07T13:55:09;2.97;;;0.90;;
68608;SDS011;55581;46.718;7.690;2024-03-07T13:57:48;2.90;;;0.88;;
68608;SDS011;55581;46.718;7.690;2024-03-07T14:00:31;2.88;;;0.82;;
68608;SDS011;55581;46.718;7.690;2024-03-07T14:03:16;2.90;;;0.95;;
68608;SDS011;55581;46.718;7.690;2024-03-07T14:06:01;3.72;;;1.27;;
68608;SDS011;55581;46.718;7.690;2024-03-07T14:16:58;2.67;;;0.90;;
68608;SDS011;55581;46.718;7.690;2024-03-07T14:22:59;2.73;;;0.80;;
68608;SDS011;55581;46.718;7.690;2024-03-07T14:31:06;3.45;;;1.20;;
68608;SDS011;55581;46.718;7.690;2024-03-07T14:36:32;3.10;;;1.10;;
68608;SDS011;55581;46.718;7.690;2024-03-07T14:39:05;4.80;;;1.17;;
68608;SDS011;55581;46.718;7.690;2024-03-07T14:41:46;3.15;;;1.05;;
68608;SDS011;55581;46.718;7.690;2024-03-07T14:44:15;3.10;;;1.00;;
68608;SDS011;55581;46.718;7.690;2024-03-07T14:46:42;3.25;;;1.08;;
68608;SDS011;55581;46.718;7.690;2024-03-07T14:49:10;2.87;;;1.00;;
68608;SDS011;55581;46.718;7.690;2024-03-07T14:51:40;3.30;;;1.30;;
68608;SDS011;55581;46.718;7.690;2024-03-07T14:54:06;3.28;;;0.93;;
68608;SDS011;55581;46.718;7.690;2024-03-07T14:56:33;3.33;;;0.80;;
68608;SDS011;55581;46.718;7.690;2024-03-07T14:58:59;2.80;;;0.70;;
68608;SDS011;55581;46.718;7.690;2024-03-07T15:01:28;3.80;;;0.90;;
68608;SDS011;55581;46.718;7.690;2024-03-07T15:03:56;2.92;;;0.90;;
68608;SDS011;55581;46.718;7.690;2024-03-07T15:06:22;2.95;;;0.65;;
68608;SDS011;55581;46.718;7.690;2024-03-07T15:08:50;3.60;;;0.97;;
68608;SDS011;55581;46.718;7.690;2024-03-07T15:11:23;2.75;;;1.00;;
68608;SDS011;55581;46.718;7.690;2024-03-07T15:13:54;3.13;;;1.10;;
68608;SDS011;55581;46.718;7.690;2024-03-07T15:16:20;3.47;;;1.23;;
68608;SDS011;55581;46.718;7.690;2024-03-07T15:18:51;3.30;;;0.97;;
68608;SDS011;55581;46.718;7.690;2024-03-07T15:21:16;3.15;;;0.80;;